F/V Argentario — FGPE — position and weather

sailwx.info

Track history (hours):
 
Tides and Currents Weather Stations Pressure Air Temp Water Temp Dewpoint Dewpoint Depression Visibility Wind Speed Wind Dir Waves Ship Positions

F/V Argentario

Last reported at 2016-Feb-05 15:31 UTC. Time now 2016-Feb-12 12:05 UTC.
Position N 46°44' W 002°21'.

Length 22 m; draft 3.4 m.

Type: Fishing. MMSI: 228975000.

Date/timePositionNaut miles runAvg speedWind from/ knotsBaromVisibWave heightAir tempDewpointWater temp
2016-Feb-05 15:31N 46°44' W 002°21'8 8.6
2016-Feb-05 14:33N 46°42' W 002°09'8 8.4
2016-Feb-05 13:33N 46°42' W 001°57'0 0.2
2016-Feb-05 12:33N 46°42' W 001°57'9 8.9
2016-Feb-05 11:33N 46°40' W 002°10'18 7.9
2016-Feb-05 09:17N 46°37' W 002°36'1 0.5
2016-Feb-05 07:29N 46°38' W 002°36'2 2.0
2016-Feb-05 06:27N 46°36' W 002°34'0 0.1
2016-Feb-05 03:26N 46°36' W 002°34'12 0.3
2016-Feb-03 08:29N 46°44' W 002°21'  
2016-Jan-31 16:25N 46°43' W 002°18'7 8.1
2016-Jan-31 15:32N 46°39' W 002°10'8 8.0
2016-Jan-31 14:33N 46°34' W 002°01'8 8.0
2016-Jan-31 13:33N 46°29' W 001°52'3 3.2
2016-Jan-31 12:33N 46°30' W 001°47'4 3.9
2016-Jan-31 11:33N 46°28' W 001°52'9 9.5
2016-Jan-31 10:33N 46°25' W 002°05'  
2016-Jan-29 05:07N 46°22' W 002°20'1 0.4
2016-Jan-29 01:26N 46°23' W 002°20'0 0.1
2016-Jan-28 23:17N 46°23' W 002°20'0 0.0
2016-Jan-28 22:20N 46°23' W 002°20'0 0.0
2016-Jan-28 21:29N 46°23' W 002°20'0 0.0
2016-Jan-28 19:26N 46°23' W 002°20'0 0.0
2016-Jan-28 18:29N 46°23' W 002°20'0 0.0
2016-Jan-28 17:17N 46°23' W 002°20'0 0.0
2016-Jan-28 16:26N 46°23' W 002°20'1 0.3
2016-Jan-28 14:08N 46°23' W 002°21'0 0.4
2016-Jan-28 13:19N 46°23' W 002°21'0 0.3
2016-Jan-28 12:23N 46°24' W 002°21'6 7.6
2016-Jan-28 11:34N 46°21' W 002°12'3 3.0
2016-Jan-28 10:33N 46°19' W 002°09'1 1.0
2016-Jan-28 09:33N 46°20' W 002°10'2 1.1
2016-Jan-28 08:09N 46°20' W 002°08'1 1.2
2016-Jan-28 07:34N 46°20' W 002°09'1 1.0
2016-Jan-28 06:33N 46°19' W 002°08'2 1.5
2016-Jan-28 05:34N 46°20' W 002°09'1 1.1
2016-Jan-28 04:33N 46°19' W 002°09'2 2.3
2016-Jan-28 03:33N 46°21' W 002°10'0 0.1
2016-Jan-28 02:33N 46°22' W 002°09'0 0.0
2016-Jan-28 01:31N 46°22' W 002°09'0 0.0
2016-Jan-27 21:33N 46°22' W 002°09'0 0.0
2016-Jan-27 20:33N 46°22' W 002°09'3 2.6
2016-Jan-27 19:33N 46°23' W 002°06'9 8.9
2016-Jan-27 18:34N 46°26' W 001°54'6 6.0
2016-Jan-27 17:33N 46°30' W 001°47'0 0.0
2016-Jan-27 16:33N 46°30' W 001°47'8 8.1
2016-Jan-27 15:33N 46°25' W 001°57'10 9.8
2016-Jan-27 14:33N 46°21' W 002°10'1 0.6
2016-Jan-27 13:33N 46°21' W 002°11'2 2.4
2016-Jan-27 12:33N 46°19' W 002°08'1 0.7
2016-Jan-27 11:33N 46°19' W 002°08'2 1.7
2016-Jan-27 10:34N 46°20' W 002°10'3 2.5
2016-Jan-27 09:32N 46°22' W 002°12'2 1.6
2016-Jan-27 08:33N 46°21' W 002°11'2 2.2
2016-Jan-27 07:34N 46°19' W 002°09'0 0.4
2016-Jan-27 06:33N 46°19' W 002°09'3 2.8
2016-Jan-27 05:32N 46°22' W 002°11'1 1.3
2016-Jan-27 04:33N 46°21' W 002°10'1 1.3
2016-Jan-27 03:34N 46°20' W 002°09'3 2.6
2016-Jan-27 02:33N 46°22' W 002°11'0 0.1
2016-Jan-26 22:28N 46°23' W 002°11'0 0.0
2016-Jan-26 21:28N 46°23' W 002°11'  
Track history (hours):
 
Tides and Currents Weather Stations Pressure Air Temp Water Temp Dewpoint Dewpoint Depression Visibility Wind Speed Wind Dir Waves Ship Positions

F/V Argentario

Last reported at 2016-Feb-05 15:31 UTC. Time now 2016-Feb-12 12:05 UTC.
Position N 46°44' W 002°21'.

Length 22 m; draft 3.4 m.

Type: Fishing. MMSI: 228975000.

Date/timePositionNaut miles runAvg speedWind from/ knotsBaromVisibWave heightAir tempDewpointWater temp
2016-Feb-05 15:31N 46°44' W 002°21'8 8.6
2016-Feb-05 14:33N 46°42' W 002°09'8 8.4
2016-Feb-05 13:33N 46°42' W 001°57'0 0.2
2016-Feb-05 12:33N 46°42' W 001°57'9 8.9
2016-Feb-05 11:33N 46°40' W 002°10'18 7.9
2016-Feb-05 09:17N 46°37' W 002°36'1 0.5
2016-Feb-05 07:29N 46°38' W 002°36'2 2.0
2016-Feb-05 06:27N 46°36' W 002°34'0 0.1
2016-Feb-05 03:26N 46°36' W 002°34'12 0.3
2016-Feb-03 08:29N 46°44' W 002°21'  
2016-Jan-31 16:25N 46°43' W 002°18'7 8.1
2016-Jan-31 15:32N 46°39' W 002°10'8 8.0
2016-Jan-31 14:33N 46°34' W 002°01'8 8.0
2016-Jan-31 13:33N 46°29' W 001°52'3 3.2
2016-Jan-31 12:33N 46°30' W 001°47'4 3.9
2016-Jan-31 11:33N 46°28' W 001°52'9 9.5
2016-Jan-31 10:33N 46°25' W 002°05'  
2016-Jan-29 05:07N 46°22' W 002°20'1 0.4
2016-Jan-29 01:26N 46°23' W 002°20'0 0.1
2016-Jan-28 23:17N 46°23' W 002°20'0 0.0
2016-Jan-28 22:20N 46°23' W 002°20'0 0.0
2016-Jan-28 21:29N 46°23' W 002°20'0 0.0
2016-Jan-28 19:26N 46°23' W 002°20'0 0.0
2016-Jan-28 18:29N 46°23' W 002°20'0 0.0
2016-Jan-28 17:17N 46°23' W 002°20'0 0.0
2016-Jan-28 16:26N 46°23' W 002°20'1 0.3
2016-Jan-28 14:08N 46°23' W 002°21'0 0.4
2016-Jan-28 13:19N 46°23' W 002°21'0 0.3
2016-Jan-28 12:23N 46°24' W 002°21'6 7.6
2016-Jan-28 11:34N 46°21' W 002°12'3 3.0
2016-Jan-28 10:33N 46°19' W 002°09'1 1.0
2016-Jan-28 09:33N 46°20' W 002°10'2 1.1
2016-Jan-28 08:09N 46°20' W 002°08'1 1.2
2016-Jan-28 07:34N 46°20' W 002°09'1 1.0
2016-Jan-28 06:33N 46°19' W 002°08'2 1.5
2016-Jan-28 05:34N 46°20' W 002°09'1 1.1
2016-Jan-28 04:33N 46°19' W 002°09'2 2.3
2016-Jan-28 03:33N 46°21' W 002°10'0 0.1
2016-Jan-28 02:33N 46°22' W 002°09'0 0.0
2016-Jan-28 01:31N 46°22' W 002°09'0 0.0
2016-Jan-27 21:33N 46°22' W 002°09'0 0.0
2016-Jan-27 20:33N 46°22' W 002°09'3 2.6
2016-Jan-27 19:33N 46°23' W 002°06'9 8.9
2016-Jan-27 18:34N 46°26' W 001°54'6 6.0
2016-Jan-27 17:33N 46°30' W 001°47'0 0.0
2016-Jan-27 16:33N 46°30' W 001°47'8 8.1
2016-Jan-27 15:33N 46°25' W 001°57'10 9.8
2016-Jan-27 14:33N 46°21' W 002°10'1 0.6
2016-Jan-27 13:33N 46°21' W 002°11'2 2.4
2016-Jan-27 12:33N 46°19' W 002°08'1 0.7
2016-Jan-27 11:33N 46°19' W 002°08'2 1.7
2016-Jan-27 10:34N 46°20' W 002°10'3 2.5
2016-Jan-27 09:32N 46°22' W 002°12'2 1.6
2016-Jan-27 08:33N 46°21' W 002°11'2 2.2
2016-Jan-27 07:34N 46°19' W 002°09'0 0.4
2016-Jan-27 06:33N 46°19' W 002°09'3 2.8
2016-Jan-27 05:32N 46°22' W 002°11'1 1.3
2016-Jan-27 04:33N 46°21' W 002°10'1 1.3
2016-Jan-27 03:34N 46°20' W 002°09'3 2.6
2016-Jan-27 02:33N 46°22' W 002°11'0 0.1
2016-Jan-26 22:28N 46°23' W 002°11'0 0.0
2016-Jan-26 21:28N 46°23' W 002°11'  

Dump ship's entire track history